Terminal Aerodrome Forecast
Issued by NWS Omaha/Valley, NE

Home | Current Version | Previous Version | Text Only | Print | Product List | Glossary On
Versions: 1 2 3 4 5 6 7 8 9 10 11 12 13 14 15 16 17 18 19 20 21 22 23 24 25 26 27 28 29 30 31 32 33 34 35 36 37 38 39 40 41 42 43 44 45 46 47 48
000
FTUS43 KOAX 282330
TAFOFK
TAF
KOFK 282330Z 2900/2924 09007KT P6SM OVC100
      TEMPO 2906/2908 -RA BKN015
     FM290800 07007KT 3SM -RA OVC008
     FM291600 05011KT 1 1/2SM -SHRA OVC008
     FM292200 05012KT 2SM -SHRA OVC015=

USA.gov is the U.S. government's official web portal to all federal, state and local government web resources and services.